Amonate, Virginia
Current Conditions -  °F | °C
As of 3:15 AM on Thursday 27 Nov 2014 (Local Time) from KJFZ Reporting Station
Overcast Overcast  
Wind Chill:   Ceiling: 4600
Heat Index:   Visibility: 7mi
Dew Point:   Wind: 3mph
Humidity: 87%   Direction: 330°NNW
Pressure: 29.94"   Gusts: NA
Location:  37.19°N, 81.64°W
Report Text: KJFZ 270815Z AUTO 33003KT 7SM OVC046 02/00 A2994 RMK AO2 T00220002
Loading
Personal Weather Stations






























Interactive Weather Map New forecast layout! Learn more

10-Day Weather Forecast

Advertisements
Track Severe Weather on mobile